Preview of NWS' New Version of Forecast
This preview is not operational and should not be used for support decisions.

Terminal Aerodrome Forecast (TAF)

Issued by National Weather Service (NWS)

                            
000
FTUS41 KGYX 181438 AAA
TAFRKD
TAF AMD
KRKD 181438Z 1815/1912 11003KT P6SM OVC007
     FM181600 14005KT P6SM BKN012
     FM182300 14003KT 2SM BR OVC002
     FM190300 VRB03KT 1/2SM FG VV002=